< < Back
Terminal Aerodrome Forecast


Current Version              Previous Versions:   1  2  3  4  5  6  7  8  9  

Terminal Aerodrome Forecast

628
FTUS42 KFFC 241437 AAA
TAFPDK
TAF AMD
KPDK 241437Z 2415/2512 15006KT P6SM VCSH SCT025 BKN040
      TEMPO 2415/2419 VRB10G20KT 5SM SHRA BKN030
     FM242100 13007KT P6SM SCT050 SCT100
     FM250100 VRB03KT P6SM FEW060 SCT150=

Latest METAR

966
SAUS70 KWBC 242100 RRF
MTRPDK
METAR KPDK 242053Z 13004KT 10SM FEW085 BKN120 27/22 A3022 RMK AO2 SLP217
60014 T02720222 56017


USA.gov is the U.S. government's official web portal to all federal, state and local government web resources and services.